GMMN/CMN METAR and TAF weather

Enter ICAO airport designator
Station Type Date Time Source
GMMN METAR 2018/07/21 22:30 UTC NOAA

GMMN 212230Z AUTO 02006KT 330V070 CAVOK 20/19 Q1016


Station Type Date Time Source
GMMN Decoded METAR 2018/07/21 22:30 UTC NOAA

Nouasseur, Morocco (GMMN) 33-22N 007-35W 206M
Jul 21, 2018 - 06:30 PM EDT / 2018.07.21 2230 UTC
Wind: from the NNE (020 degrees) at 7 MPH (6 KT) (direction variable):0
Visibility: greater than 7 mile(s):0
Temperature: 68 F (20 C)
Dew Point: 66 F (19 C)
Relative Humidity: 93%
Pressure (altimeter): 30.00 in. Hg (1016 hPa)
ob: GMMN 212230Z AUTO 02006KT 330V070 CAVOK 20/19 Q1016
cycle: 22

Station Type Date Time Source
GMMN TAF 2018/07/21 18:36 UTC NOAA

TAF TAF GMMN 211700Z 2118/2224 36015KT CAVOK
BECMG 2121/2124 02006KT 6000 SCT008
BECMG 2209/2212 36010KT CAVOK


Example: see airport list